createdAt,value
2023-03-24T00:00:54.163Z,999.12
2023-03-24T00:01:54.172Z,999.12
2023-03-24T00:02:54.327Z,999.12
2023-03-24T00:03:54.255Z,999.05
2023-03-24T00:04:54.141Z,999.11
2023-03-24T00:05:54.110Z,999.08
2023-03-24T00:06:54.161Z,999.11
2023-03-24T00:07:55.188Z,999.07
2023-03-24T00:08:54.068Z,999.09
2023-03-24T00:09:54.079Z,999.17
2023-03-24T00:10:54.050Z,999.04
2023-03-24T00:11:54.037Z,999.01
2023-03-24T00:12:54.068Z,999.04
2023-03-24T00:13:54.008Z,999.03
2023-03-24T00:14:54.014Z,999.04
2023-03-24T00:15:54.003Z,998.94
2023-03-24T00:16:54.024Z,998.99
2023-03-24T00:17:54.009Z,998.91
2023-03-24T00:18:54.462Z,998.91
2023-03-24T00:19:53.940Z,998.87
2023-03-24T00:20:53.919Z,998.89
2023-03-24T00:21:53.889Z,998.84
2023-03-24T00:22:53.899Z,998.84
2023-03-24T00:23:53.869Z,998.76
2023-03-24T00:24:53.864Z,998.89
2023-03-24T00:25:53.847Z,998.81
2023-03-24T00:26:53.848Z,998.81
2023-03-24T00:27:53.826Z,998.75
2023-03-24T00:28:53.845Z,998.71
2023-03-24T00:29:53.773Z,998.65
2023-03-24T00:30:53.828Z,998.69
2023-03-24T00:31:53.798Z,998.62
2023-03-24T00:32:53.899Z,998.63
2023-03-24T00:33:54.067Z,998.54
2023-03-24T00:34:53.754Z,998.57
2023-03-24T00:35:53.735Z,998.54
2023-03-24T00:36:53.714Z,998.55
2023-03-24T00:37:53.678Z,998.48
2023-03-24T00:38:53.754Z,998.43
2023-03-24T00:39:53.665Z,998.42
2023-03-24T00:40:53.681Z,998.47
2023-03-24T00:41:53.653Z,998.49
2023-03-24T00:42:53.655Z,998.52
2023-03-24T00:43:53.614Z,998.46
2023-03-24T00:44:53.628Z,998.49
2023-03-24T00:45:53.588Z,998.49
2023-03-24T00:46:53.620Z,998.52
2023-03-24T00:47:53.626Z,998.54
2023-03-24T00:48:53.550Z,998.50
2023-03-24T00:49:53.524Z,998.50
2023-03-24T00:50:53.558Z,998.44
2023-03-24T00:51:53.518Z,998.40
2023-03-24T00:52:53.563Z,998.37
2023-03-24T00:53:53.488Z,998.40
2023-03-24T00:54:53.500Z,998.30
2023-03-24T00:55:53.444Z,998.38
2023-03-24T00:56:53.506Z,998.32
2023-03-24T00:57:53.413Z,998.44
2023-03-24T00:58:53.423Z,998.34
2023-03-24T00:59:53.420Z,998.31
2023-03-24T01:00:53.486Z,998.23
2023-03-24T01:01:53.491Z,998.21
2023-03-24T01:02:53.731Z,998.23
2023-03-24T01:03:53.391Z,998.23
2023-03-24T01:04:53.346Z,998.21
2023-03-24T01:05:53.331Z,998.24
2023-03-24T01:06:53.330Z,998.15
2023-03-24T01:07:53.300Z,998.20
2023-03-24T01:08:53.347Z,998.17
2023-03-24T01:09:53.293Z,998.24
2023-03-24T01:10:53.373Z,998.17
2023-03-24T01:11:53.253Z,998.14
2023-03-24T01:12:53.259Z,998.25
2023-03-24T01:13:53.235Z,998.21
2023-03-24T01:14:53.211Z,998.23
2023-03-24T01:15:53.277Z,998.21
2023-03-24T01:16:53.195Z,998.23
2023-03-24T01:17:53.444Z,998.22
2023-03-24T01:18:53.168Z,998.20
2023-03-24T01:19:53.158Z,998.25
2023-03-24T01:20:53.169Z,998.23
2023-03-24T01:21:53.126Z,998.23
2023-03-24T01:22:53.159Z,998.26
2023-03-24T01:23:53.122Z,998.19
2023-03-24T01:24:53.082Z,998.15
2023-03-24T01:25:53.068Z,998.20
2023-03-24T01:26:53.085Z,998.18
2023-03-24T01:27:53.089Z,998.22
2023-03-24T01:28:53.028Z,998.15
2023-03-24T01:29:53.045Z,998.17
2023-03-24T01:30:53.001Z,998.17
2023-03-24T01:31:53.071Z,998.13
2023-03-24T01:32:53.132Z,998.24
2023-03-24T01:33:53.010Z,998.11
2023-03-24T01:34:52.978Z,998.06
2023-03-24T01:35:52.998Z,998.11
2023-03-24T01:36:52.939Z,998.07
2023-03-24T01:37:52.932Z,998.04
2023-03-24T01:38:52.942Z,998.03
2023-03-24T01:39:52.940Z,998.00
2023-03-24T01:40:52.912Z,997.89
2023-03-24T01:41:52.855Z,997.95
2023-03-24T01:42:52.910Z,997.94
2023-03-24T01:43:52.827Z,997.94
2023-03-24T01:44:52.850Z,997.98
2023-03-24T01:45:52.883Z,997.92
2023-03-24T01:46:52.800Z,997.90
2023-03-24T01:47:52.867Z,997.86
2023-03-24T01:48:52.831Z,997.77
2023-03-24T01:49:52.750Z,997.81
2023-03-24T01:50:52.783Z,997.75
2023-03-24T01:51:52.775Z,997.77
2023-03-24T01:52:52.754Z,997.67
2023-03-24T01:53:52.749Z,997.69
2023-03-24T01:54:52.719Z,997.64
2023-03-24T01:55:52.686Z,997.64
2023-03-24T01:56:52.727Z,997.57
2023-03-24T01:57:52.696Z,997.56
2023-03-24T01:58:52.656Z,997.46
2023-03-24T01:59:52.632Z,997.50
2023-03-24T02:00:52.677Z,997.55
2023-03-24T02:01:52.674Z,997.49
2023-03-24T02:02:52.646Z,997.36
2023-03-24T02:03:52.654Z,997.39
2023-03-24T02:04:52.579Z,997.31
2023-03-24T02:05:52.592Z,997.33
2023-03-24T02:06:52.570Z,997.29
2023-03-24T02:07:52.563Z,997.22
2023-03-24T02:08:52.523Z,997.17
2023-03-24T02:09:52.523Z,997.22
2023-03-24T02:10:52.508Z,997.16
2023-03-24T02:11:52.547Z,997.09
2023-03-24T02:12:52.495Z,997.06
2023-03-24T02:13:52.463Z,997.09
2023-03-24T02:14:52.524Z,997.06
2023-03-24T02:15:52.472Z,997.04
2023-03-24T02:16:52.447Z,996.96
2023-03-24T02:17:52.453Z,996.99
2023-03-24T02:18:52.387Z,997.02
2023-03-24T02:19:52.411Z,996.98
2023-03-24T02:20:52.395Z,996.93
2023-03-24T02:21:52.449Z,996.87
2023-03-24T02:22:52.368Z,996.88
2023-03-24T02:23:52.360Z,996.84
2023-03-24T02:24:52.335Z,996.79
2023-03-24T02:25:52.329Z,996.78
2023-03-24T02:26:52.311Z,996.73
2023-03-24T02:27:52.307Z,996.75
2023-03-24T02:28:52.263Z,996.67
2023-03-24T02:29:52.264Z,996.78
2023-03-24T02:30:52.239Z,996.75
2023-03-24T02:31:52.285Z,996.74
2023-03-24T02:32:52.309Z,996.83
2023-03-24T02:33:52.206Z,996.79
2023-03-24T02:34:52.216Z,996.87
2023-03-24T02:35:52.198Z,996.78
2023-03-24T02:36:52.196Z,996.76
2023-03-24T02:37:52.149Z,996.72
2023-03-24T02:38:52.182Z,996.68
2023-03-24T02:39:52.171Z,996.66
2023-03-24T02:40:52.105Z,996.68
2023-03-24T02:41:52.098Z,996.65
2023-03-24T02:42:52.082Z,996.73
2023-03-24T02:43:52.168Z,996.76
2023-03-24T02:44:52.135Z,996.79
2023-03-24T02:45:52.073Z,996.74
2023-03-24T02:46:52.029Z,996.77
2023-03-24T02:47:52.042Z,996.79
2023-03-24T02:48:52.036Z,996.80
2023-03-24T02:49:51.998Z,996.84
2023-03-24T02:50:51.969Z,996.82
2023-03-24T02:51:51.966Z,996.75
2023-03-24T02:52:51.978Z,996.83
2023-03-24T02:53:52.072Z,996.78
2023-03-24T02:54:51.949Z,996.78
2023-03-24T02:55:51.951Z,996.77
2023-03-24T02:56:51.933Z,996.85
2023-03-24T02:57:51.923Z,996.78
2023-03-24T02:58:51.928Z,996.90
2023-03-24T02:59:51.875Z,996.80
2023-03-24T03:00:51.864Z,996.72
2023-03-24T03:01:51.961Z,996.74
2023-03-24T03:02:52.010Z,996.80
2023-03-24T03:03:51.883Z,996.78
2023-03-24T03:04:51.816Z,996.69
2023-03-24T03:05:51.793Z,996.73
2023-03-24T03:06:51.790Z,996.71
2023-03-24T03:07:51.759Z,996.73
2023-03-24T03:08:51.747Z,996.73
2023-03-24T03:09:51.772Z,996.72
2023-03-24T03:10:51.792Z,996.76
2023-03-24T03:11:51.814Z,996.81
2023-03-24T03:12:51.709Z,996.66
2023-03-24T03:13:51.683Z,996.70
2023-03-24T03:14:55.448Z,996.76
2023-03-24T03:15:51.684Z,996.69
2023-03-24T03:16:51.692Z,996.79
2023-03-24T03:17:51.683Z,996.79
2023-03-24T03:18:59.428Z,996.72
2023-03-24T03:19:51.653Z,996.75
2023-03-24T03:20:51.580Z,996.80
2023-03-24T03:21:53.401Z,996.71
2023-03-24T03:22:51.570Z,996.75
2023-03-24T03:23:51.589Z,996.58
2023-03-24T03:24:51.585Z,996.70
2023-03-24T03:25:51.569Z,996.58
2023-03-24T03:26:51.547Z,996.62
2023-03-24T03:27:51.556Z,996.52
2023-03-24T03:28:51.515Z,996.52
2023-03-24T03:29:51.549Z,996.62
2023-03-24T03:30:51.479Z,996.56
2023-03-24T03:31:51.489Z,996.59
2023-03-24T03:32:51.505Z,996.57
2023-03-24T03:33:51.473Z,996.61
2023-03-24T03:34:51.429Z,996.62
2023-03-24T03:35:51.436Z,996.57
2023-03-24T03:36:51.424Z,996.58
2023-03-24T03:37:51.396Z,996.53
2023-03-24T03:38:51.371Z,996.64
2023-03-24T03:39:51.412Z,996.55
2023-03-24T03:40:51.337Z,996.52
2023-03-24T03:41:51.367Z,996.54
2023-03-24T03:42:51.340Z,996.56
2023-03-24T03:43:51.317Z,996.64
2023-03-24T03:44:51.308Z,996.54
2023-03-24T03:45:51.315Z,996.58
2023-03-24T03:46:51.329Z,996.50
2023-03-24T03:47:51.313Z,996.54
2023-03-24T03:48:51.244Z,996.51
2023-03-24T03:49:51.253Z,996.53
2023-03-24T03:50:59.856Z,996.51
2023-03-24T03:51:52.255Z,996.57
2023-03-24T03:52:51.189Z,996.60
2023-03-24T03:53:51.210Z,996.59
2023-03-24T03:54:51.196Z,996.54
2023-03-24T03:55:51.146Z,996.66
2023-03-24T03:56:51.144Z,996.59
2023-03-24T03:57:51.173Z,996.62
2023-03-24T03:58:51.121Z,996.60
2023-03-24T03:59:51.111Z,996.66
2023-03-24T04:00:51.136Z,996.68
2023-03-24T04:01:51.132Z,996.71
2023-03-24T04:02:51.164Z,996.65
2023-03-24T04:03:51.120Z,996.66
2023-03-24T04:04:59.807Z,996.71
2023-03-24T04:05:52.050Z,996.61
2023-03-24T04:06:51.005Z,996.65
2023-03-24T04:07:51.038Z,996.66
2023-03-24T04:08:51.002Z,996.72
2023-03-24T04:09:50.971Z,996.75
2023-03-24T04:10:50.975Z,996.72
2023-03-24T04:11:50.972Z,996.74
2023-03-24T04:12:50.928Z,996.74
2023-03-24T04:13:50.980Z,996.72
2023-03-24T04:14:50.886Z,996.64
2023-03-24T04:15:50.925Z,996.70
2023-03-24T04:16:50.867Z,996.64
2023-03-24T04:17:50.991Z,996.60
2023-03-24T04:18:50.877Z,996.61
2023-03-24T04:19:50.872Z,996.71
2023-03-24T04:20:50.857Z,996.75
2023-03-24T04:21:50.818Z,996.80
2023-03-24T04:22:50.786Z,996.83
2023-03-24T04:23:50.877Z,996.85
2023-03-24T04:24:50.774Z,996.81
2023-03-24T04:25:50.776Z,996.92
2023-03-24T04:26:50.735Z,996.90
2023-03-24T04:27:50.757Z,996.81
2023-03-24T04:28:50.754Z,996.94
2023-03-24T04:29:50.718Z,996.96
2023-03-24T04:30:50.725Z,997.01
2023-03-24T04:31:50.847Z,997.07
2023-03-24T04:32:50.760Z,996.95
2023-03-24T04:33:50.675Z,996.96
2023-03-24T04:34:50.675Z,996.98
2023-03-24T04:35:50.690Z,996.97
2023-03-24T04:36:50.709Z,996.97
2023-03-24T04:37:50.619Z,997.05
2023-03-24T04:38:50.602Z,997.02
2023-03-24T04:39:50.597Z,997.11
2023-03-24T04:40:50.582Z,997.13
2023-03-24T04:41:50.609Z,997.29
2023-03-24T04:42:50.530Z,997.16
2023-03-24T04:43:50.531Z,997.17
2023-03-24T04:44:50.526Z,997.29
2023-03-24T04:45:50.596Z,997.15
2023-03-24T04:46:50.487Z,997.29
2023-03-24T04:47:50.498Z,997.30
2023-03-24T04:48:50.481Z,997.26
2023-03-24T04:49:50.519Z,997.30
2023-03-24T04:50:50.471Z,997.31
2023-03-24T04:51:50.460Z,997.45
2023-03-24T04:52:50.416Z,997.34
2023-03-24T04:53:50.417Z,997.21
2023-03-24T04:54:50.397Z,997.35
2023-03-24T04:55:50.473Z,997.42
2023-03-24T04:56:50.369Z,997.49
2023-03-24T04:57:50.377Z,997.52
2023-03-24T04:58:50.346Z,997.60
2023-03-24T04:59:50.379Z,997.61
2023-03-24T05:00:50.334Z,997.65
2023-03-24T05:01:50.421Z,997.63
2023-03-24T05:02:50.323Z,997.61
2023-03-24T05:03:50.334Z,997.71
2023-03-24T05:04:50.300Z,997.69
2023-03-24T05:05:50.244Z,997.77
2023-03-24T05:06:50.296Z,997.74
2023-03-24T05:07:50.220Z,997.76
2023-03-24T05:08:50.215Z,997.73
2023-03-24T05:09:50.216Z,997.85
2023-03-24T05:10:50.199Z,997.78
2023-03-24T05:11:50.157Z,997.76
2023-03-24T05:12:50.195Z,997.77
2023-03-24T05:13:50.173Z,997.83
2023-03-24T05:14:50.102Z,997.82
2023-03-24T05:15:50.130Z,997.91
2023-03-24T05:16:50.142Z,997.88
2023-03-24T05:17:50.158Z,997.86
2023-03-24T05:18:50.049Z,997.92
2023-03-24T05:19:50.093Z,997.93
2023-03-24T05:20:50.053Z,998.02
2023-03-24T05:21:50.052Z,998.02
2023-03-24T05:22:50.050Z,998.17
2023-03-24T05:23:50.027Z,998.15
2023-03-24T05:24:50.022Z,998.20
2023-03-24T05:25:49.973Z,998.27
2023-03-24T05:26:49.967Z,998.31
2023-03-24T05:27:49.981Z,998.35
2023-03-24T05:28:49.938Z,998.40
2023-03-24T05:29:49.928Z,998.42
2023-03-24T05:30:49.979Z,998.44
2023-03-24T05:31:49.911Z,998.39
2023-03-24T05:32:49.922Z,998.49
2023-03-24T05:33:49.913Z,998.51
2023-03-24T05:34:49.905Z,998.53
2023-03-24T05:35:49.861Z,998.55
2023-03-24T05:36:49.853Z,998.63
2023-03-24T05:37:49.875Z,998.59
2023-03-24T05:38:49.849Z,998.62
2023-03-24T05:39:49.817Z,998.63
2023-03-24T05:40:49.780Z,998.60
2023-03-24T05:41:49.776Z,998.63
2023-03-24T05:42:49.741Z,998.56
2023-03-24T05:43:49.755Z,998.67
2023-03-24T05:44:50.919Z,998.64
2023-03-24T05:45:49.812Z,998.69
2023-03-24T05:46:49.735Z,998.71
2023-03-24T05:47:49.752Z,998.69
2023-03-24T05:48:49.720Z,998.75
2023-03-24T05:49:49.718Z,998.78
2023-03-24T05:50:49.639Z,998.82
2023-03-24T05:51:49.641Z,998.76
2023-03-24T05:52:49.665Z,998.86
2023-03-24T05:53:49.622Z,998.79
2023-03-24T05:54:49.639Z,998.84
2023-03-24T05:55:49.602Z,998.77
2023-03-24T05:56:49.580Z,998.90
2023-03-24T05:57:49.562Z,998.82
2023-03-24T05:58:49.548Z,998.84
2023-03-24T05:59:49.548Z,998.80
2023-03-24T06:00:49.580Z,998.78
2023-03-24T06:01:49.546Z,998.74
2023-03-24T06:02:49.604Z,998.79
2023-03-24T06:03:49.708Z,998.79
2023-03-24T06:04:49.572Z,998.91
2023-03-24T06:05:49.515Z,998.97
2023-03-24T06:06:49.445Z,999.01
2023-03-24T06:07:49.453Z,999.09
2023-03-24T06:08:49.473Z,999.12
2023-03-24T06:09:49.410Z,999.17
2023-03-24T06:10:49.486Z,999.16
2023-03-24T06:11:49.399Z,999.28
2023-03-24T06:12:49.384Z,999.23
2023-03-24T06:13:49.353Z,999.22
2023-03-24T06:14:49.347Z,999.30
2023-03-24T06:15:49.514Z,999.30
2023-03-24T06:16:49.337Z,999.28
2023-03-24T06:17:49.373Z,999.32
2023-03-24T06:18:49.309Z,999.34
2023-03-24T06:19:49.306Z,999.39
2023-03-24T06:20:49.293Z,999.40
2023-03-24T06:21:49.274Z,999.41
2023-03-24T06:22:49.248Z,999.44
2023-03-24T06:23:49.224Z,999.41
2023-03-24T06:24:49.255Z,999.37
2023-03-24T06:25:49.202Z,999.37
2023-03-24T06:26:49.190Z,999.38
2023-03-24T06:27:49.209Z,999.46
2023-03-24T06:28:49.187Z,999.49
2023-03-24T06:29:49.164Z,999.38
2023-03-24T06:30:49.232Z,999.43
2023-03-24T06:31:49.148Z,999.48
2023-03-24T06:32:49.195Z,999.47
2023-03-24T06:33:49.097Z,999.52
2023-03-24T06:34:49.135Z,999.54
2023-03-24T06:35:49.087Z,999.60
2023-03-24T06:36:49.094Z,999.64
2023-03-24T06:37:49.083Z,999.75
2023-03-24T06:38:50.832Z,999.72
2023-03-24T06:39:49.088Z,999.71
2023-03-24T06:40:49.056Z,999.71
2023-03-24T06:41:49.045Z,999.79
2023-03-24T06:42:49.059Z,999.70
2023-03-24T06:43:48.973Z,999.72
2023-03-24T06:44:49.047Z,999.75
2023-03-24T06:45:49.216Z,999.76
2023-03-24T06:46:49.023Z,999.79
2023-03-24T06:47:48.975Z,999.85
2023-03-24T06:48:48.962Z,999.91
2023-03-24T06:49:48.904Z,1000.07
2023-03-24T06:50:48.989Z,1000.14
2023-03-24T06:51:48.865Z,1000.21
2023-03-24T06:52:48.872Z,1000.19
2023-03-24T06:53:48.877Z,1000.22
2023-03-24T06:54:48.901Z,1000.30
2023-03-24T06:55:48.830Z,1000.31
2023-03-24T06:56:48.924Z,1000.28
2023-03-24T06:57:48.790Z,1000.25
2023-03-24T06:58:48.795Z,1000.25
2023-03-24T06:59:49.148Z,1000.24
2023-03-24T07:00:48.805Z,1000.25
2023-03-24T07:01:48.762Z,1000.31
2023-03-24T07:02:48.838Z,1000.29
2023-03-24T07:03:48.799Z,1000.28
2023-03-24T07:04:48.735Z,1000.31
2023-03-24T07:05:48.705Z,1000.30
2023-03-24T07:07:02.008Z,1000.25
2023-03-24T07:08:48.669Z,1000.24
2023-03-24T07:09:48.670Z,1000.14
2023-03-24T07:10:48.660Z,1000.09
2023-03-24T07:11:48.629Z,1000.11
2023-03-24T07:12:48.700Z,1000.12
2023-03-24T07:13:48.601Z,1000.17
2023-03-24T07:14:48.607Z,1000.09
2023-03-24T07:15:48.579Z,1000.09
2023-03-24T07:16:48.580Z,1000.12
2023-03-24T07:17:48.597Z,1000.09
2023-03-24T07:18:48.543Z,1000.23
2023-03-24T07:19:48.529Z,1000.21
2023-03-24T07:20:48.538Z,1000.22
2023-03-24T07:21:48.505Z,1000.28
2023-03-24T07:22:48.501Z,1000.35
2023-03-24T07:23:48.485Z,1000.35
2023-03-24T07:24:48.472Z,1000.36
2023-03-24T07:25:48.419Z,1000.37
2023-03-24T07:26:48.435Z,1000.37
2023-03-24T07:27:48.432Z,1000.39
2023-03-24T07:28:48.421Z,1000.33
2023-03-24T07:29:48.407Z,1000.31
2023-03-24T07:30:48.425Z,1000.35
2023-03-24T07:31:48.384Z,1000.33
2023-03-24T07:32:48.385Z,1000.35
2023-03-24T07:33:48.333Z,1000.41
2023-03-24T07:34:48.402Z,1000.43
2023-03-24T07:35:48.690Z,1000.47
2023-03-24T07:36:48.363Z,1000.46
2023-03-24T07:37:48.271Z,1000.46
2023-03-24T07:38:48.299Z,1000.50
2023-03-24T07:39:48.247Z,1000.46
2023-03-24T07:40:48.295Z,1000.51
2023-03-24T07:41:48.249Z,1000.49
2023-03-24T07:42:48.234Z,1000.47
2023-03-24T07:43:48.227Z,1000.49
2023-03-24T07:44:48.214Z,1000.50
2023-03-24T07:45:48.515Z,1000.50
2023-03-24T07:46:48.202Z,1000.48
2023-03-24T07:47:48.183Z,1000.61
2023-03-24T07:48:48.164Z,1000.51
2023-03-24T07:49:48.248Z,1000.52
2023-03-24T07:50:48.140Z,1000.48
2023-03-24T07:51:48.088Z,1000.50
2023-03-24T07:52:48.095Z,1000.52
2023-03-24T07:53:48.090Z,1000.58
2023-03-24T07:54:48.069Z,1000.57
2023-03-24T07:55:48.739Z,1000.53
2023-03-24T07:56:48.100Z,1000.61
2023-03-24T07:57:48.098Z,1000.53
2023-03-24T07:58:48.100Z,1000.53
2023-03-24T07:59:48.007Z,1000.58
2023-03-24T08:00:48.282Z,1000.55
2023-03-24T08:01:48.804Z,1000.60
2023-03-24T08:02:48.129Z,1000.55
2023-03-24T08:03:48.111Z,1000.65
2023-03-24T08:04:47.995Z,1000.59
2023-03-24T08:05:48.123Z,1000.70
2023-03-24T08:06:47.910Z,1000.70
2023-03-24T08:07:47.923Z,1000.79
2023-03-24T08:08:47.909Z,1000.77
2023-03-24T08:09:47.854Z,1000.74
2023-03-24T08:10:47.958Z,1000.71
2023-03-24T08:11:47.980Z,1000.77
2023-03-24T08:12:47.879Z,1000.77
2023-03-24T08:13:47.879Z,1000.79
2023-03-24T08:14:47.827Z,1000.75
2023-03-24T08:15:47.934Z,1000.73
2023-03-24T08:16:47.813Z,1000.68
2023-03-24T08:17:47.839Z,1000.73
2023-03-24T08:18:47.774Z,1000.66
2023-03-24T08:19:58.841Z,1000.65
2023-03-24T08:20:48.733Z,1000.64
2023-03-24T08:21:47.716Z,1000.70
2023-03-24T08:22:47.714Z,1000.79
2023-03-24T08:23:47.697Z,1000.70
2023-03-24T08:24:47.936Z,1000.70
2023-03-24T08:25:47.909Z,1000.74
2023-03-24T08:26:47.674Z,1000.66
2023-03-24T08:27:47.617Z,1000.59
2023-03-24T08:28:47.628Z,1000.64
2023-03-24T08:29:47.644Z,1000.62
2023-03-24T08:30:47.866Z,1000.55
2023-03-24T08:31:47.600Z,1000.57
2023-03-24T08:32:47.631Z,1000.62
2023-03-24T08:33:47.576Z,1000.64
2023-03-24T08:34:47.652Z,1000.65
2023-03-24T08:35:47.923Z,1000.65
2023-03-24T08:36:47.521Z,1000.63
2023-03-24T08:37:47.494Z,1000.63
2023-03-24T08:38:47.507Z,1000.63
2023-03-24T08:39:47.467Z,1000.66
2023-03-24T08:40:47.547Z,1000.66
2023-03-24T08:41:47.458Z,1000.72
2023-03-24T08:42:47.466Z,1000.71
2023-03-24T08:43:47.412Z,1000.70
2023-03-24T08:44:47.448Z,1000.73
2023-03-24T08:45:47.593Z,1000.78
2023-03-24T08:46:47.437Z,1000.75
2023-03-24T08:47:47.437Z,1000.69
2023-03-24T08:48:47.368Z,1000.80
2023-03-24T08:49:47.358Z,1000.72
2023-03-24T08:50:47.347Z,1000.68
2023-03-24T08:51:47.358Z,1000.80
2023-03-24T08:52:47.339Z,1000.79
2023-03-24T08:53:47.328Z,1000.81
2023-03-24T08:54:47.303Z,1000.77
2023-03-24T08:55:47.474Z,1000.77
2023-03-24T08:56:47.292Z,1000.76
2023-03-24T08:57:47.260Z,1000.80
2023-03-24T08:58:47.230Z,1000.84
2023-03-24T08:59:48.112Z,1000.80
2023-03-24T09:00:47.249Z,1000.79
2023-03-24T09:01:47.220Z,1000.79
2023-03-24T09:02:47.221Z,1000.82
2023-03-24T09:03:47.184Z,1000.82
2023-03-24T09:04:47.245Z,1000.80
2023-03-24T09:05:47.155Z,1000.91
2023-03-24T09:06:47.173Z,1000.83
2023-03-24T09:07:47.131Z,1000.87
2023-03-24T09:08:47.124Z,1000.79
2023-03-24T09:09:47.128Z,1000.88
2023-03-24T09:10:47.244Z,1000.93
2023-03-24T09:11:47.092Z,1000.92
2023-03-24T09:12:47.077Z,1000.92
2023-03-24T09:13:47.051Z,1000.90
2023-03-24T09:14:47.040Z,1000.94
2023-03-24T09:15:47.239Z,1000.91
2023-03-24T09:16:47.019Z,1000.97
2023-03-24T09:17:47.011Z,1001.00
2023-03-24T09:18:47.723Z,1000.98
2023-03-24T09:19:46.966Z,1000.98
2023-03-24T09:20:47.302Z,1000.98
2023-03-24T09:21:46.961Z,1000.98
2023-03-24T09:22:46.968Z,1000.97
2023-03-24T09:23:46.896Z,1000.97
2023-03-24T09:24:46.885Z,1001.01
2023-03-24T09:25:47.273Z,1000.99
2023-03-24T09:26:46.869Z,1001.01
2023-03-24T09:27:46.871Z,1001.12
2023-03-24T09:28:46.859Z,1001.06
2023-03-24T09:29:46.804Z,1001.00
2023-03-24T09:30:46.965Z,1001.07
2023-03-24T09:31:46.860Z,1001.14
2023-03-24T09:32:46.940Z,1001.12
2023-03-24T09:33:46.779Z,1001.15
2023-03-24T09:34:46.784Z,1001.17
2023-03-24T09:35:46.771Z,1001.11
2023-03-24T09:36:46.755Z,1001.04
2023-03-24T09:37:46.730Z,1001.17
2023-03-24T09:38:46.738Z,1000.98
2023-03-24T09:39:46.687Z,1001.11
2023-03-24T09:40:46.914Z,1001.05
2023-03-24T09:41:46.684Z,1001.07
2023-03-24T09:42:46.835Z,1001.08
2023-03-24T09:43:46.716Z,1001.08
2023-03-24T09:44:46.806Z,1001.06
2023-03-24T09:45:46.849Z,1001.05
2023-03-24T09:46:46.721Z,1001.05
2023-03-24T09:47:46.652Z,1001.12
2023-03-24T09:48:46.610Z,1001.07
2023-03-24T09:49:46.557Z,1001.15
2023-03-24T09:50:46.630Z,1001.05
2023-03-24T09:51:46.625Z,1001.09
2023-03-24T09:52:46.531Z,1001.09
2023-03-24T09:53:46.557Z,1001.10
2023-03-24T09:54:46.526Z,1001.08
2023-03-24T09:55:46.678Z,1001.18
2023-03-24T09:56:47.283Z,1001.17
2023-03-24T09:57:46.514Z,1001.11
2023-03-24T09:58:46.477Z,1001.22
2023-03-24T09:59:46.489Z,1001.18
2023-03-24T10:00:46.670Z,1001.19
2023-03-24T10:01:46.549Z,1001.24
2023-03-24T10:02:46.679Z,1001.25
2023-03-24T10:03:46.557Z,1001.20
2023-03-24T10:04:46.494Z,1001.24
2023-03-24T10:05:46.779Z,1001.25
2023-03-24T10:06:46.355Z,1001.28
2023-03-24T10:07:46.340Z,1001.13
2023-03-24T10:08:46.330Z,1001.20
2023-03-24T10:09:46.337Z,1001.26
2023-03-24T10:10:46.484Z,1001.29
2023-03-24T10:11:46.283Z,1001.21
2023-03-24T10:12:46.282Z,1001.16
2023-03-24T10:13:46.274Z,1001.34
2023-03-24T10:14:46.274Z,1001.28
2023-03-24T10:15:46.245Z,1001.32
2023-03-24T10:16:46.304Z,1001.35
2023-03-24T10:17:46.217Z,1001.33
2023-03-24T10:18:46.190Z,1001.30
2023-03-24T10:19:46.190Z,1001.39
2023-03-24T10:20:46.215Z,1001.34
2023-03-24T10:21:46.190Z,1001.35
2023-03-24T10:22:46.168Z,1001.46
2023-03-24T10:23:46.134Z,1001.45
2023-03-24T10:24:46.105Z,1001.43
2023-03-24T10:25:46.492Z,1001.32
2023-03-24T10:26:46.113Z,1001.42
2023-03-24T10:27:46.125Z,1001.41
2023-03-24T10:28:46.090Z,1001.45
2023-03-24T10:29:46.084Z,1001.40
2023-03-24T10:30:48.141Z,1001.47
2023-03-24T10:31:46.046Z,1001.40
2023-03-24T10:32:46.054Z,1001.44
2023-03-24T10:33:46.031Z,1001.43
2023-03-24T10:34:45.998Z,1001.48
2023-03-24T10:35:46.082Z,1001.46
2023-03-24T10:36:45.989Z,1001.36
2023-03-24T10:37:45.979Z,1001.36
2023-03-24T10:38:45.944Z,1001.41
2023-03-24T10:39:45.955Z,1001.41
2023-03-24T10:40:45.925Z,1001.43
2023-03-24T10:41:45.934Z,1001.42
2023-03-24T10:42:45.905Z,1001.43
2023-03-24T10:43:45.924Z,1001.39
2023-03-24T10:44:45.884Z,1001.48
2023-03-24T10:45:46.025Z,1001.41
2023-03-24T10:46:45.823Z,1001.45
2023-03-24T10:47:45.977Z,1001.45
2023-03-24T10:48:45.854Z,1001.35
2023-03-24T10:49:45.834Z,1001.40
2023-03-24T10:50:45.849Z,1001.43
2023-03-24T10:51:45.813Z,1001.43
2023-03-24T10:52:45.870Z,1001.45
2023-03-24T10:53:45.898Z,1001.43
2023-03-24T10:54:45.916Z,1001.43
2023-03-24T10:55:45.866Z,1001.46
2023-03-24T10:56:45.742Z,1001.40
2023-03-24T10:57:45.729Z,1001.44
2023-03-24T10:58:45.703Z,1001.36
2023-03-24T10:59:45.714Z,1001.43
2023-03-24T11:00:45.655Z,1001.43
2023-03-24T11:01:45.778Z,1001.46
2023-03-24T11:02:45.695Z,1001.52
2023-03-24T11:03:45.686Z,1001.45
2023-03-24T11:04:45.620Z,1001.45
2023-03-24T11:05:45.622Z,1001.53
2023-03-24T11:06:45.587Z,1001.50
2023-03-24T11:07:45.592Z,1001.51
2023-03-24T11:08:45.590Z,1001.51
2023-03-24T11:09:45.606Z,1001.60
2023-03-24T11:10:45.553Z,1001.49
2023-03-24T11:11:45.578Z,1001.48
2023-03-24T11:12:45.502Z,1001.53
2023-03-24T11:13:45.510Z,1001.55
2023-03-24T11:14:45.495Z,1001.56
2023-03-24T11:15:45.502Z,1001.50
2023-03-24T11:16:45.475Z,1001.43
2023-03-24T11:17:45.465Z,1001.46
2023-03-24T11:18:45.464Z,1001.41
2023-03-24T11:19:45.464Z,1001.45
2023-03-24T11:20:45.402Z,1001.47
2023-03-24T11:21:45.417Z,1001.46
2023-03-24T11:22:45.349Z,1001.50
2023-03-24T11:23:45.391Z,1001.54
2023-03-24T11:24:45.341Z,1001.51
2023-03-24T11:25:45.346Z,1001.58
2023-03-24T11:26:45.332Z,1001.52
2023-03-24T11:27:45.401Z,1001.56
2023-03-24T11:28:45.316Z,1001.54
2023-03-24T11:29:45.352Z,1001.54
2023-03-24T11:30:46.016Z,1001.56
2023-03-24T11:31:45.286Z,1001.53
2023-03-24T11:32:45.348Z,1001.52
2023-03-24T11:33:45.239Z,1001.51
2023-03-24T11:34:45.267Z,1001.57
2023-03-24T11:35:50.376Z,1001.62
2023-03-24T11:36:47.545Z,1001.59
2023-03-24T11:37:45.201Z,1001.59
2023-03-24T11:38:45.198Z,1001.64
2023-03-24T11:39:45.167Z,1001.48
2023-03-24T11:40:45.146Z,1001.59
2023-03-24T11:41:45.140Z,1001.49
2023-03-24T11:42:46.041Z,1001.52
2023-03-24T11:43:45.136Z,1001.55
2023-03-24T11:44:45.088Z,1001.50
2023-03-24T11:45:45.112Z,1001.53
2023-03-24T11:46:45.157Z,1001.56
2023-03-24T11:47:45.091Z,1001.46
2023-03-24T11:48:45.028Z,1001.60
2023-03-24T11:49:45.041Z,1001.44
2023-03-24T11:50:45.000Z,1001.48
2023-03-24T11:51:44.992Z,1001.54
2023-03-24T11:52:44.982Z,1001.51
2023-03-24T11:53:44.986Z,1001.63
2023-03-24T11:54:44.967Z,1001.51
2023-03-24T11:55:44.954Z,1001.56
2023-03-24T11:56:44.989Z,1001.54
2023-03-24T11:57:44.936Z,1001.57
2023-03-24T11:58:44.888Z,1001.47
2023-03-24T11:59:44.943Z,1001.44
2023-03-24T12:00:44.898Z,1001.44
2023-03-24T12:01:44.894Z,1001.40
2023-03-24T12:02:44.902Z,1001.40
2023-03-24T12:03:44.926Z,1001.31
2023-03-24T12:04:44.839Z,1001.41
2023-03-24T12:05:44.835Z,1001.38
2023-03-24T12:06:44.798Z,1001.38
2023-03-24T12:07:44.824Z,1001.42
2023-03-24T12:08:44.768Z,1001.36
2023-03-24T12:09:44.832Z,1001.37
2023-03-24T12:10:44.762Z,1001.29
2023-03-24T12:11:44.748Z,1001.33
2023-03-24T12:12:44.775Z,1001.34
2023-03-24T12:13:44.709Z,1001.29
2023-03-24T12:14:44.764Z,1001.26
2023-03-24T12:15:44.715Z,1001.26
2023-03-24T12:16:44.724Z,1001.22
2023-03-24T12:17:44.754Z,1001.26
2023-03-24T12:18:44.636Z,1001.18
2023-03-24T12:19:44.640Z,1001.30